createdAt,value
2023-02-03T00:00:44.338Z,-23.35
2023-02-03T00:03:13.137Z,-22.52
2023-02-03T00:05:42.928Z,-22.83
2023-02-03T00:08:12.206Z,-22.71
2023-02-03T00:10:41.491Z,-22.79
2023-02-03T00:13:10.565Z,-22.67
2023-02-03T00:15:39.380Z,-22.64
2023-02-03T00:18:08.233Z,-22.99
2023-02-03T00:20:36.910Z,-22.58
2023-02-03T00:23:10.946Z,-22.29
2023-02-03T00:25:40.043Z,-22.47
2023-02-03T00:28:09.965Z,-22.38
2023-02-03T00:30:39.354Z,-22.73
2023-02-03T00:33:07.973Z,-22.53
2023-02-03T00:35:40.679Z,-22.57
2023-02-03T00:38:09.453Z,-23.03
2023-02-03T00:40:38.161Z,-23.38
2023-02-03T00:43:07.043Z,-22.66
2023-02-03T00:45:35.868Z,-22.90
2023-02-03T00:48:05.721Z,-22.72
2023-02-03T00:50:34.542Z,-22.82
2023-02-03T00:53:03.529Z,-23.14
2023-02-03T00:55:32.261Z,-23.69
2023-02-03T00:58:00.946Z,-23.01
2023-02-03T01:00:29.642Z,-22.99
2023-02-03T01:02:58.404Z,-23.10
2023-02-03T01:05:29.500Z,-23.06
2023-02-03T01:08:02.046Z,-22.93
2023-02-03T01:10:31.484Z,-23.05
2023-02-03T01:13:00.421Z,-23.25
2023-02-03T01:15:29.641Z,-23.18
2023-02-03T01:17:59.043Z,-23.77
2023-02-03T01:20:28.041Z,-23.01
2023-02-03T01:22:56.941Z,-23.66
2023-02-03T01:25:25.760Z,-23.25
2023-02-03T01:27:54.456Z,-23.13
2023-02-03T01:30:25.860Z,-23.17
2023-02-03T01:32:54.806Z,-23.52
2023-02-03T01:35:26.006Z,-23.43
2023-02-03T01:37:54.873Z,-23.40
2023-02-03T01:40:23.552Z,-23.52
2023-02-03T01:42:52.507Z,-23.26
2023-02-03T01:45:21.260Z,-23.21
2023-02-03T01:47:55.561Z,-23.27
2023-02-03T01:50:28.262Z,-23.16
2023-02-03T01:53:07.082Z,-23.75
2023-02-03T01:55:39.541Z,-23.37
2023-02-03T01:58:21.962Z,-23.52
2023-02-03T02:00:51.413Z,-23.38
2023-02-03T02:03:23.644Z,-23.56
2023-02-03T02:05:59.928Z,-23.44
2023-02-03T02:08:29.341Z,-23.60
2023-02-03T02:11:01.328Z,-23.66
2023-02-03T02:13:35.994Z,-23.69
2023-02-03T02:16:11.943Z,-23.44
2023-02-03T02:18:46.625Z,-23.39
2023-02-03T02:21:53.987Z,-23.42
2023-02-03T02:24:56.542Z,-23.45
2023-02-03T02:27:25.121Z,-23.48
2023-02-03T02:30:36.213Z,-23.54
2023-02-03T02:33:40.259Z,-23.69
2023-02-03T02:36:19.742Z,-23.69
2023-02-03T02:39:00.623Z,-23.37
2023-02-03T02:41:40.747Z,-23.63
2023-02-03T02:44:19.037Z,-23.76
2023-02-03T02:46:53.202Z,-23.66
2023-02-03T02:50:02.204Z,-23.56
2023-02-03T02:52:33.660Z,-23.81
2023-02-03T02:55:15.421Z,-23.61
2023-02-03T02:57:46.639Z,-23.78
2023-02-03T03:00:16.080Z,-23.64
2023-02-03T03:02:44.915Z,-23.70
2023-02-03T03:05:14.131Z,-23.43
2023-02-03T03:07:57.445Z,-23.44
2023-02-03T03:10:31.340Z,-24.00
2023-02-03T03:13:15.302Z,-23.49
2023-02-03T03:15:46.144Z,-23.33
2023-02-03T03:18:20.399Z,-23.93
2023-02-03T03:20:53.062Z,-23.38
2023-02-03T03:23:31.061Z,-23.50
2023-02-03T03:26:21.342Z,-23.49
2023-02-03T03:29:42.147Z,-23.69
2023-02-03T03:32:11.724Z,-23.12
2023-02-03T03:34:41.285Z,-23.31
2023-02-03T03:37:28.231Z,-22.69
2023-02-03T03:40:02.185Z,-22.77
2023-02-03T03:43:10.502Z,-22.56
2023-02-03T03:45:50.181Z,-22.71
2023-02-03T03:48:18.901Z,-22.45
2023-02-03T03:50:54.283Z,-22.56
2023-02-03T03:53:24.991Z,-22.37
2023-02-03T03:55:55.945Z,-22.14
2023-02-03T03:58:30.624Z,-22.09
2023-02-03T04:01:03.881Z,-22.02
2023-02-03T04:03:54.802Z,-21.91
2023-02-03T04:06:23.620Z,-21.63
2023-02-03T04:08:52.389Z,-21.61
2023-02-03T04:11:39.843Z,-21.17
2023-02-03T04:14:08.463Z,-20.88
2023-02-03T04:16:37.425Z,-20.77
2023-02-03T04:19:08.327Z,-20.87
2023-02-03T04:21:37.287Z,-20.58
2023-02-03T04:24:06.345Z,-20.38
2023-02-03T04:26:35.242Z,-20.83
2023-02-03T04:29:04.341Z,-20.35
2023-02-03T04:31:36.249Z,-20.03
2023-02-03T04:34:05.161Z,-19.98
2023-02-03T04:36:33.944Z,-19.87
2023-02-03T04:39:03.026Z,-19.90
2023-02-03T04:41:31.707Z,-19.72
2023-02-03T04:44:00.518Z,-19.60
2023-02-03T04:46:29.465Z,-19.67
2023-02-03T04:48:58.707Z,-20.01
2023-02-03T04:51:27.501Z,-19.53
2023-02-03T04:53:56.161Z,-19.61
2023-02-03T04:56:25.042Z,-19.14
2023-02-03T04:58:53.881Z,-19.19
2023-02-03T05:01:22.867Z,-18.97
2023-02-03T05:03:53.968Z,-18.97
2023-02-03T05:06:27.383Z,-18.73
2023-02-03T05:08:56.162Z,-18.41
2023-02-03T05:11:27.683Z,-18.44
2023-02-03T05:13:59.223Z,-18.01
2023-02-03T05:16:31.321Z,-18.10
2023-02-03T05:19:00.107Z,-17.87
2023-02-03T05:21:28.763Z,-17.47
2023-02-03T05:23:57.585Z,-17.29
2023-02-03T05:26:26.301Z,-17.18
2023-02-03T05:28:56.676Z,-16.83
2023-02-03T05:31:26.651Z,-16.79
2023-02-03T05:33:55.499Z,-16.61
2023-02-03T05:36:24.347Z,-16.41
2023-02-03T05:38:53.102Z,-16.28
2023-02-03T05:41:40.484Z,-16.12
2023-02-03T05:44:09.360Z,-15.97
2023-02-03T05:46:37.991Z,-15.55
2023-02-03T05:49:06.719Z,-15.56
2023-02-03T05:51:36.680Z,-15.30
2023-02-03T05:54:05.742Z,-15.19
2023-02-03T05:56:34.854Z,-15.42
2023-02-03T05:59:03.761Z,-15.25
2023-02-03T06:01:33.787Z,-15.23
2023-02-03T06:04:03.481Z,-15.03
2023-02-03T06:06:36.060Z,-15.61
2023-02-03T06:09:09.583Z,-14.93
2023-02-03T06:11:38.303Z,-14.95
2023-02-03T06:14:07.521Z,-14.97
2023-02-03T06:16:36.420Z,-14.65
2023-02-03T06:19:09.624Z,-14.64
2023-02-03T06:21:38.441Z,-14.42
2023-02-03T06:24:07.745Z,-14.34
2023-02-03T06:26:36.361Z,-14.29
2023-02-03T06:29:05.260Z,-14.12
2023-02-03T06:31:36.584Z,-14.10
2023-02-03T06:34:05.762Z,-13.84
2023-02-03T06:36:34.452Z,-13.86
2023-02-03T06:39:05.622Z,-13.84
2023-02-03T06:41:34.269Z,-13.69
2023-02-03T06:44:03.196Z,-13.78
2023-02-03T06:46:33.101Z,-14.04
2023-02-03T06:49:01.969Z,-13.49
2023-02-03T06:51:30.621Z,-13.26
2023-02-03T06:54:04.289Z,-13.24
2023-02-03T06:56:33.037Z,-13.12
2023-02-03T06:59:02.127Z,-12.98
2023-02-03T07:01:31.764Z,-12.76
2023-02-03T07:04:00.389Z,-12.72
2023-02-03T07:06:33.241Z,-12.62
2023-02-03T07:09:07.541Z,-12.63
2023-02-03T07:11:36.503Z,-12.35
2023-02-03T07:14:05.520Z,-12.28
2023-02-03T07:16:35.022Z,-12.16
2023-02-03T07:19:04.874Z,-12.15
2023-02-03T07:21:34.116Z,-11.75
2023-02-03T07:24:03.950Z,-11.39
2023-02-03T07:26:32.624Z,-11.15
2023-02-03T07:29:01.920Z,-11.02
2023-02-03T07:31:31.446Z,-10.45
2023-02-03T07:34:01.727Z,-10.32
2023-02-03T07:36:30.394Z,-10.18
2023-02-03T07:38:59.084Z,-9.85
2023-02-03T07:41:28.448Z,-9.81
2023-02-03T07:43:57.264Z,-9.68
2023-02-03T07:46:26.271Z,-9.63
2023-02-03T07:48:55.441Z,-9.71
2023-02-03T07:51:24.815Z,-9.62
2023-02-03T07:53:53.263Z,-9.41
2023-02-03T07:56:22.221Z,-9.62
2023-02-03T07:58:54.025Z,-9.73
2023-02-03T08:01:23.333Z,-9.77
2023-02-03T08:03:54.873Z,-9.59
2023-02-03T08:06:24.144Z,-9.57
2023-02-03T08:08:54.856Z,-9.58
2023-02-03T08:11:23.764Z,-9.56
2023-02-03T08:13:52.501Z,-9.87
2023-02-03T08:16:21.479Z,-9.81
2023-02-03T08:18:50.220Z,-9.66
2023-02-03T08:21:19.106Z,-9.97
2023-02-03T08:23:48.067Z,-9.95
2023-02-03T08:26:17.320Z,-9.99
2023-02-03T08:28:50.950Z,-9.79
2023-02-03T08:31:22.527Z,-10.08
2023-02-03T08:33:51.633Z,-9.99
2023-02-03T08:36:20.411Z,-10.04
2023-02-03T08:38:49.227Z,-10.15
2023-02-03T08:41:19.201Z,-9.91
2023-02-03T08:43:47.893Z,-10.17
2023-02-03T08:46:16.672Z,-10.14
2023-02-03T08:48:45.741Z,-10.44
2023-02-03T08:51:17.099Z,-10.26
2023-02-03T08:53:46.237Z,-10.50
2023-02-03T08:56:15.108Z,-10.46
2023-02-03T08:58:43.878Z,-10.33
2023-02-03T09:01:16.858Z,-10.41
2023-02-03T09:03:45.778Z,-10.40
2023-02-03T09:06:17.246Z,-11.00
2023-02-03T09:08:47.511Z,-10.59
2023-02-03T09:11:18.309Z,-10.76
2023-02-03T09:13:47.063Z,-11.12
2023-02-03T09:16:18.643Z,-10.82
2023-02-03T09:18:47.977Z,-10.67
2023-02-03T09:21:31.744Z,-10.69
2023-02-03T09:24:06.440Z,-10.74
2023-02-03T09:26:35.109Z,-10.82
2023-02-03T09:29:03.930Z,-10.91
2023-02-03T09:31:34.524Z,-11.03
2023-02-03T09:34:10.553Z,-11.33
2023-02-03T09:36:50.698Z,-11.28
2023-02-03T09:39:24.035Z,-11.08
2023-02-03T09:42:02.007Z,-11.10
2023-02-03T09:44:41.340Z,-11.20
2023-02-03T09:47:38.377Z,-11.33
2023-02-03T09:50:16.453Z,-11.60
2023-02-03T09:52:45.235Z,-12.18
2023-02-03T09:55:38.370Z,-11.58
2023-02-03T09:58:14.517Z,-11.69
2023-02-03T10:00:52.989Z,-11.74
2023-02-03T10:03:51.123Z,-11.98
2023-02-03T10:06:23.720Z,-11.87
2023-02-03T10:09:18.931Z,-11.94
2023-02-03T10:12:06.135Z,-12.06
2023-02-03T10:14:53.750Z,-12.12
2023-02-03T10:17:31.073Z,-12.18
2023-02-03T10:20:40.413Z,-12.22
2023-02-03T10:23:17.748Z,-12.38
2023-02-03T10:25:58.032Z,-12.38
2023-02-03T10:28:35.988Z,-12.28
2023-02-03T10:31:14.618Z,-12.32
2023-02-03T10:33:43.409Z,-12.32
2023-02-03T10:36:23.567Z,-12.59
2023-02-03T10:39:02.507Z,-12.90
2023-02-03T10:41:33.559Z,-12.63
2023-02-03T10:44:09.510Z,-12.52
2023-02-03T10:46:42.690Z,-12.54
2023-02-03T10:49:14.154Z,-12.73
2023-02-03T10:51:51.706Z,-12.66
2023-02-03T10:54:35.156Z,-12.83
2023-02-03T10:57:23.397Z,-13.10
2023-02-03T10:59:52.437Z,-13.24
2023-02-03T11:02:29.550Z,-13.39
2023-02-03T11:05:18.547Z,-13.81
2023-02-03T11:07:50.411Z,-13.88
2023-02-03T11:10:36.607Z,-14.06
2023-02-03T11:13:13.928Z,-13.96
2023-02-03T11:16:02.494Z,-14.05
2023-02-03T11:18:48.094Z,-14.34
2023-02-03T11:21:31.119Z,-14.67
2023-02-03T11:24:10.314Z,-14.30
2023-02-03T11:26:46.547Z,-14.69
2023-02-03T11:29:26.893Z,-14.49
2023-02-03T11:31:58.614Z,-14.56
2023-02-03T11:34:40.328Z,-14.90
2023-02-03T11:37:27.727Z,-15.32
2023-02-03T11:40:22.307Z,-14.79
2023-02-03T11:42:51.143Z,-14.92
2023-02-03T11:45:49.815Z,-15.52
2023-02-03T11:48:31.870Z,-15.16
2023-02-03T11:51:05.108Z,-15.13
2023-02-03T11:54:03.901Z,-15.18
2023-02-03T11:57:19.472Z,-15.37
2023-02-03T12:00:07.144Z,-15.35
2023-02-03T12:02:52.992Z,-15.47
2023-02-03T12:05:28.030Z,-15.37
2023-02-03T12:08:11.860Z,-15.38
2023-02-03T12:11:07.125Z,-15.63
2023-02-03T12:14:00.229Z,-15.41
2023-02-03T12:16:44.086Z,-15.44
2023-02-03T12:19:28.563Z,-15.43
2023-02-03T12:22:12.180Z,-15.48
2023-02-03T12:24:56.336Z,-15.98
2023-02-03T12:27:47.793Z,-15.64
2023-02-03T12:30:27.137Z,-15.88
2023-02-03T12:33:20.925Z,-16.10
2023-02-03T12:36:08.002Z,-15.94
2023-02-03T12:39:01.624Z,-16.30
2023-02-03T12:41:43.382Z,-16.30
2023-02-03T12:44:27.683Z,-16.19
2023-02-03T12:47:09.049Z,-16.59
2023-02-03T12:49:59.182Z,-16.22
2023-02-03T12:52:40.086Z,-16.40
2023-02-03T12:55:56.738Z,-16.11
2023-02-03T12:58:34.761Z,-16.22
2023-02-03T13:01:13.678Z,-15.96
2023-02-03T13:04:11.997Z,-15.93
2023-02-03T13:07:08.280Z,-16.21
2023-02-03T13:09:54.671Z,-16.04
2023-02-03T13:12:41.918Z,-16.32
2023-02-03T13:15:22.885Z,-15.84
2023-02-03T13:17:57.923Z,-15.91
2023-02-03T13:20:35.277Z,-16.00
2023-02-03T13:23:13.139Z,-15.57
2023-02-03T13:26:19.511Z,-15.50
2023-02-03T13:32:19.387Z,-15.40
2023-02-03T13:35:21.670Z,-15.35
2023-02-03T13:38:12.964Z,-15.61
2023-02-03T13:41:34.002Z,-15.25
2023-02-03T13:44:04.186Z,-15.61
2023-02-03T13:46:36.743Z,-15.43
2023-02-03T13:49:09.565Z,-15.41
2023-02-03T13:51:46.949Z,-15.13
2023-02-03T13:54:32.901Z,-15.19
2023-02-03T13:57:04.285Z,-15.11
2023-02-03T13:59:39.685Z,-14.84
2023-02-03T14:02:20.580Z,-14.76
2023-02-03T14:04:50.856Z,-14.70
2023-02-03T14:07:41.161Z,-14.87
2023-02-03T14:10:16.280Z,-14.53
2023-02-03T14:12:53.273Z,-14.46
2023-02-03T14:15:34.179Z,-14.42
2023-02-03T14:18:25.735Z,-14.92
2023-02-03T14:21:11.248Z,-14.55
2023-02-03T14:23:44.641Z,-14.52
2023-02-03T14:26:24.623Z,-14.61
2023-02-03T14:28:54.028Z,-14.45
2023-02-03T14:31:29.238Z,-14.31
2023-02-03T14:34:16.459Z,-14.44
2023-02-03T14:36:45.282Z,-14.05
2023-02-03T14:39:20.721Z,-14.00
2023-02-03T14:42:01.823Z,-13.98
2023-02-03T14:44:54.076Z,-13.94
2023-02-03T14:47:35.160Z,-13.89
2023-02-03T14:50:43.689Z,-14.21
2023-02-03T14:53:27.352Z,-13.78
2023-02-03T14:56:04.988Z,-13.74
2023-02-03T14:58:43.848Z,-13.94
2023-02-03T15:01:50.777Z,-13.69
2023-02-03T15:04:20.451Z,-13.64
2023-02-03T15:06:51.818Z,-13.70
2023-02-03T15:09:25.986Z,-13.56
2023-02-03T15:11:55.069Z,-13.75
2023-02-03T15:14:27.286Z,-13.67
2023-02-03T15:17:04.849Z,-13.43
2023-02-03T15:19:41.222Z,-13.63
2023-02-03T15:22:29.827Z,-13.58
2023-02-03T15:25:05.127Z,-13.43
2023-02-03T15:27:34.287Z,-13.27
2023-02-03T15:30:36.688Z,-13.22
2023-02-03T15:33:24.838Z,-13.34
2023-02-03T15:36:00.969Z,-13.23
2023-02-03T15:38:41.838Z,-13.23
2023-02-03T15:41:23.244Z,-13.30
2023-02-03T15:44:02.319Z,-13.08
2023-02-03T15:46:44.199Z,-13.22
2023-02-03T15:49:24.524Z,-13.30
2023-02-03T15:52:03.515Z,-13.60
2023-02-03T15:54:41.570Z,-12.85
2023-02-03T15:57:28.951Z,-12.84
2023-02-03T16:00:09.548Z,-12.94
2023-02-03T16:02:46.605Z,-12.74
2023-02-03T16:05:38.121Z,-12.63
2023-02-03T16:08:46.779Z,-12.58
2023-02-03T16:11:34.859Z,-12.53
2023-02-03T16:14:32.419Z,-12.81
2023-02-03T16:17:05.432Z,-12.59
2023-02-03T16:19:38.733Z,-12.38
2023-02-03T16:22:32.978Z,-12.38
2023-02-03T16:25:16.246Z,-12.52
2023-02-03T16:27:48.337Z,-12.70
2023-02-03T16:30:43.983Z,-12.54
2023-02-03T16:33:34.537Z,-12.44
2023-02-03T16:36:32.435Z,-12.47
2023-02-03T16:39:22.639Z,-12.86
2023-02-03T16:42:09.578Z,-12.45
2023-02-03T16:44:56.872Z,-12.35
2023-02-03T16:47:52.258Z,-12.29
2023-02-03T16:50:42.198Z,-12.83
2023-02-03T16:53:20.415Z,-12.30
2023-02-03T16:55:50.126Z,-12.18
2023-02-03T16:58:19.598Z,-12.27
2023-02-03T17:00:52.238Z,-12.36
2023-02-03T17:03:24.702Z,-12.31
2023-02-03T17:05:54.251Z,-12.17
2023-02-03T17:08:26.366Z,-12.73
2023-02-03T17:10:55.253Z,-12.27
2023-02-03T17:13:25.173Z,-12.33
2023-02-03T17:15:54.593Z,-12.13
2023-02-03T17:18:23.854Z,-12.26
2023-02-03T17:20:54.100Z,-12.29
2023-02-03T17:23:22.776Z,-12.27
2023-02-03T17:25:51.594Z,-12.23
2023-02-03T17:28:20.496Z,-12.25
2023-02-03T17:30:57.777Z,-12.68
2023-02-03T17:33:27.430Z,-12.42
2023-02-03T17:36:08.261Z,-12.10
2023-02-03T17:55:21.223Z,-12.15
2023-02-03T17:57:49.747Z,-12.37
2023-02-03T18:00:18.762Z,-12.30
2023-02-03T18:02:51.804Z,-12.10
2023-02-03T18:05:20.683Z,-12.16
2023-02-03T18:07:50.438Z,-12.76
2023-02-03T18:10:19.452Z,-12.13
2023-02-03T18:12:48.065Z,-12.23
2023-02-03T18:15:17.252Z,-12.15
2023-02-03T18:17:46.862Z,-11.95
2023-02-03T18:20:15.711Z,-12.06
2023-02-03T18:22:45.669Z,-11.90
2023-02-03T18:25:17.976Z,-12.16
2023-02-03T18:27:46.552Z,-12.17
2023-02-03T18:30:15.956Z,-12.09
2023-02-03T18:32:44.730Z,-11.91
2023-02-03T18:35:17.485Z,-11.88
2023-02-03T18:37:46.457Z,-12.07
2023-02-03T18:40:15.257Z,-12.07
2023-02-03T18:42:43.871Z,-12.17
2023-02-03T18:45:12.878Z,-12.11
2023-02-03T18:47:41.766Z,-11.89
2023-02-03T18:50:11.644Z,-11.96
2023-02-03T18:52:40.417Z,-12.19
2023-02-03T18:55:09.987Z,-12.03
2023-02-03T18:57:38.942Z,-12.04
2023-02-03T19:00:08.258Z,-11.77
2023-02-03T19:02:37.093Z,-11.98
2023-02-03T19:05:06.527Z,-11.94
2023-02-03T19:07:35.500Z,-11.86
2023-02-03T19:10:04.962Z,-11.93
2023-02-03T19:12:33.896Z,-11.72
2023-02-03T19:15:03.265Z,-12.27
2023-02-03T19:17:32.099Z,-11.67
2023-02-03T19:20:00.831Z,-11.96
2023-02-03T19:22:30.454Z,-11.95
2023-02-03T19:24:59.748Z,-11.85
2023-02-03T19:27:28.396Z,-11.86
2023-02-03T19:29:56.994Z,-11.87
2023-02-03T19:32:25.728Z,-11.90
2023-02-03T19:34:54.401Z,-11.86
2023-02-03T19:37:23.058Z,-12.52
2023-02-03T19:39:52.338Z,-12.01
2023-02-03T19:42:21.154Z,-11.93
2023-02-03T19:44:51.737Z,-11.97
2023-02-03T19:47:20.224Z,-12.28
2023-02-03T19:49:48.913Z,-11.93
2023-02-03T19:52:17.660Z,-12.22
2023-02-03T19:54:46.244Z,-11.96
2023-02-03T19:57:15.014Z,-12.36
2023-02-03T19:59:43.665Z,-12.40
2023-02-03T20:02:14.885Z,-12.19
2023-02-03T20:04:44.804Z,-12.09
2023-02-03T20:07:14.495Z,-12.17
2023-02-03T20:09:43.963Z,-12.59
2023-02-03T20:12:12.931Z,-12.26
2023-02-03T20:14:41.450Z,-12.19
2023-02-03T20:17:10.113Z,-12.12
2023-02-03T20:19:38.702Z,-12.20
2023-02-03T20:22:07.164Z,-12.17
2023-02-03T20:24:35.690Z,-12.18
2023-02-03T20:27:04.561Z,-12.00
2023-02-03T20:29:33.587Z,-12.01
2023-02-03T20:32:02.333Z,-12.02
2023-02-03T20:34:31.202Z,-12.12
2023-02-03T20:37:01.705Z,-12.03
2023-02-03T20:39:30.351Z,-12.08
2023-02-03T20:41:59.084Z,-12.05
2023-02-03T20:44:27.690Z,-12.16
2023-02-03T20:46:56.595Z,-12.27
2023-02-03T20:49:25.670Z,-12.02
2023-02-03T20:51:54.520Z,-12.14
2023-02-03T20:54:23.922Z,-11.98
2023-02-03T20:56:52.599Z,-11.87
2023-02-03T20:59:21.305Z,-12.03
2023-02-03T21:01:51.343Z,-12.02
2023-02-03T21:04:38.850Z,-11.89
2023-02-03T21:07:15.066Z,-12.01
2023-02-03T21:09:43.589Z,-12.04
2023-02-03T21:12:15.862Z,-11.99
2023-02-03T21:14:49.512Z,-11.86
2023-02-03T21:17:22.638Z,-11.97
2023-02-03T21:19:52.871Z,-11.90
2023-02-03T21:22:27.187Z,-12.01
2023-02-03T21:25:00.856Z,-12.56
2023-02-03T21:27:32.654Z,-12.13
2023-02-03T21:30:25.340Z,-12.07
2023-02-03T21:32:54.073Z,-12.49
2023-02-03T21:35:27.250Z,-12.00
2023-02-03T21:38:02.423Z,-12.08
2023-02-03T21:40:33.428Z,-12.06
2023-02-03T21:43:05.570Z,-11.96
2023-02-03T21:45:43.196Z,-11.79
2023-02-03T21:48:33.357Z,-11.89
2023-02-03T21:51:05.951Z,-11.90
2023-02-03T21:53:36.287Z,-11.88
2023-02-03T21:56:37.230Z,-11.70
2023-02-03T21:59:30.010Z,-12.30
2023-02-03T22:02:27.775Z,-11.86
2023-02-03T22:05:09.449Z,-12.04
2023-02-03T22:07:48.170Z,-11.64
2023-02-03T22:10:31.504Z,-12.00
2023-02-03T22:13:11.333Z,-12.00
2023-02-03T22:15:54.611Z,-11.97
2023-02-03T22:18:34.227Z,-12.03
2023-02-03T22:21:23.814Z,-12.06
2023-02-03T22:24:03.125Z,-12.06
2023-02-03T22:26:43.366Z,-12.09
2023-02-03T22:29:22.956Z,-12.09
2023-02-03T22:32:17.716Z,-12.22
2023-02-03T22:34:58.880Z,-11.96
2023-02-03T22:37:36.357Z,-12.01
2023-02-03T22:40:21.945Z,-12.04
2023-02-03T22:42:59.768Z,-13.14
2023-02-03T22:45:39.562Z,-12.01
2023-02-03T22:48:18.181Z,-12.22
2023-02-03T22:51:02.673Z,-12.25
2023-02-03T22:53:43.322Z,-11.80
2023-02-03T22:56:24.378Z,-11.80
2023-02-03T22:59:05.703Z,-11.91
2023-02-03T23:01:53.109Z,-12.34
2023-02-03T23:04:32.930Z,-11.86
2023-02-03T23:07:14.932Z,-11.97
2023-02-03T23:09:53.979Z,-12.70
2023-02-03T23:12:37.477Z,-11.97
2023-02-03T23:15:16.921Z,-12.03
2023-02-03T23:17:55.687Z,-11.78
2023-02-03T23:20:39.240Z,-12.23
2023-02-03T23:23:28.847Z,-12.02
2023-02-03T23:26:06.065Z,-11.87
2023-02-03T23:28:45.835Z,-12.02
2023-02-03T23:31:32.055Z,-11.86
2023-02-03T23:34:23.170Z,-12.02
2023-02-03T23:36:51.966Z,-11.69
2023-02-03T23:39:20.444Z,-11.90
2023-02-03T23:41:49.119Z,-11.72
2023-02-03T23:44:17.567Z,-11.80
2023-02-03T23:46:46.256Z,-11.81
2023-02-03T23:49:14.866Z,-11.77
2023-02-03T23:51:43.573Z,-11.89
2023-02-03T23:54:15.067Z,-11.95
2023-02-03T23:56:43.689Z,-11.92
2023-02-03T23:59:13.050Z,-11.85
